Flight Track Log - Related Links

Times and Time Zones

All times are in EDT time to prevent confusion due to time zone crossing. See the EJA396 flight status page for this flight to view local times or setup timezone preferences in your user account.


Time Position Orientation Groundspeed Altitude Reporting Facility
EDT Latitude Longitude Course Direction KTS MPH feet Rate Location/Type
Fri 01:49:34 PM 38.5164 -83.7742 204° Southwest 177 204 3,600  Level Indianapolis Center
Fri 01:50:36 PM 38.4489 -83.8122 204° Southwest 262 302 6,600 3,339 Climbing Indianapolis Center
Fri 01:51:38 PM 38.3900 -83.8778 221° Southwest 246 283 10,500 3,854 Climbing Indianapolis Center
Fri 01:52:39 PM 38.3258 -83.9358 215° Southwest 274 315 14,500 3,756 Climbing Indianapolis Center
Fri 01:53:41 PM 38.2439 -83.9653 196° South 302 348 18,200 3,726 Climbing Indianapolis Center
Fri 01:54:43 PM 38.1614 -83.9975 197° South 308 354 22,200 3,290 Climbing Indianapolis Center
Fri 01:55:45 PM 38.0794 -84.0281 196° South 308 354 25,000 1,355 Climbing Indianapolis Center
Fri 01:56:47 PM 37.9800 -84.0664 197° South 377 434 25,000  Level Indianapolis Center
Fri 01:57:48 PM 37.8581 -84.1125 197° South 392 451 25,000 537 Level Indianapolis Center
Fri 01:58:50 PM 37.7503 -84.1514 196° South 401 461 26,100 1,984 Climbing Indianapolis Center
Fri 01:59:52 PM 37.6442 -84.1911 197° South 397 457 29,100 2,903 Climbing Indianapolis Center
Fri 02:00:54 PM 37.5411 -84.2294 196° South 383 441 32,100 1,902 Climbing Indianapolis Center
Fri 02:01:55 PM 37.4369 -84.2675 196° South 388 447 33,000 634 Climbing Indianapolis Center
Fri 02:02:57 PM 37.3178 -84.3114 196° South 438 504 33,400 968 Climbing Indianapolis Center
Fri 02:03:59 PM 37.1769 -84.3650 197° South 451 519 35,000 774 Climbing Indianapolis Center
Fri 02:05:01 PM 37.0550 -84.4103 197° South 456 525 35,000  Level Indianapolis Center
Fri 02:06:03 PM 36.9303 -84.4550 196° South 465 535 35,000  Level Indianapolis Center
Fri 02:07:04 PM 36.8058 -84.5003 196° South 466 536 35,000  Level Indianapolis Center
Fri 02:08:06 PM 36.6842 -84.5447 196° South 462 532 35,000  Level Indianapolis Center
Fri 02:09:08 PM 36.5631 -84.5875 196° South 453 521 35,000  Level Indianapolis Center
Fri 02:10:10 PM 36.4242 -84.6381 196° South 433 498 35,000  Level Indianapolis Center
Fri 02:11:12 PM 36.3117 -84.6786 196° South 424 488 35,000  Level Indianapolis Center
Fri 02:12:14 PM 36.1986 -84.7192 196° South 421 484 35,000  Level Indianapolis Center
Fri 02:13:18 PM 36.0833 -84.7606 196° South 425 489 35,000  Level Atlanta Center
Fri 02:14:18 PM 35.9747 -84.7956 195° South 419 482 35,000  Level Atlanta Center
Fri 02:15:18 PM 35.8597 -84.8408 198° South 425 489 35,000  Level Atlanta Center
Fri 02:16:18 PM 35.7319 -84.8831 195° South 430 495 35,000  Level Atlanta Center
Fri 02:17:18 PM 35.6211 -84.9228 196° South 430 495 35,000  Level Atlanta Center
Fri 02:18:18 PM 35.5125 -84.9625 197° South 417 480 35,000  Level Atlanta Center
Fri 02:19:18 PM 35.4036 -85.0019 196° South 417 480 35,000  Level Atlanta Center
Fri 02:20:18 PM 35.2928 -85.0414 196° South 417 480 35,000  Level Atlanta Center
Fri 02:21:18 PM 35.1819 -85.0781 195° South 417 480 35,000  Level Atlanta Center
Fri 02:22:18 PM 35.0689 -85.1197 197° South 417 480 35,000  Level Atlanta Center
Fri 02:23:18 PM 34.9600 -85.1642 198° South 417 480 35,000  Level Atlanta Center
Fri 02:24:18 PM 34.8797 -85.2517 222° Southwest 396 456 35,000 -250 Level Atlanta Center
Fri 02:25:18 PM 34.7975 -85.3464 223° Southwest 401 461 34,500 -700 Descending Atlanta Center
Fri 02:26:18 PM 34.7169 -85.4439 225° Southwest 406 467 33,600 -1,000 Descending Atlanta Center
Fri 02:27:18 PM 34.6283 -85.5458 223° Southwest 420 483 32,500 -1,850 Descending Atlanta Center
Fri 02:28:18 PM 34.5392 -85.6475 223° Southwest 431 496 29,900 -2,650 Descending Atlanta Center
Fri 02:29:18 PM 34.4522 -85.7492 224° Southwest 437 503 27,200 -2,650 Descending Atlanta Center
Fri 02:30:18 PM 34.3675 -85.8406 222° Southwest 430 495 24,600 -2,550 Descending Atlanta Center
Fri 02:31:18 PM 34.2847 -85.9369 224° Southwest 419 482 22,100 -1,800 Descending Atlanta Center
Fri 02:32:18 PM 34.2019 -86.0306 223° Southwest 414 476 21,000 -550 Descending Atlanta Center
Fri 02:33:18 PM 34.1314 -86.1317 230° Southwest 408 470 21,000  Level Atlanta Center
Fri 02:34:18 PM 34.0833 -86.2511 244° Southwest 400 460 21,000  Level Atlanta Center
Fri 02:35:18 PM 34.0331 -86.3725 243° Southwest 400 460 21,000 -700 Level Atlanta Center
Fri 02:36:18 PM 33.9583 -86.4581 224° Southwest 384 442 19,600 -1,806 Descending Atlanta Center
Fri 02:36:51 PM 33.9053 -86.4967 211° Southwest 376 433 18,200 -2,820 Descending Atlanta Center
Fri 02:37:58 PM 33.8142 -86.5642 212° Southwest 348 400 14,900 -3,071 Descending Atlanta Center
Fri 02:38:58 PM 33.7403 -86.6169 211° Southwest 304 350 11,700 -3,307 Descending Atlanta Center
Fri 02:40:05 PM 33.6458 -86.6289 186° South 270 311 7,900 -3,094 Descending Atlanta Center
Fri 02:41:06 PM 33.5769 -86.6369 186° South 238 274 5,100 -1,438 Descending Atlanta Center
Fri 02:42:06 PM 33.5161 -86.6450 186° South 204 235 5,000 -500 Descending Atlanta Center
Fri 02:43:18 PM 33.4697 -86.6736 207° Southwest 174 200 4,000 -1,156 Descending Atlanta Center
Fri 02:43:55 PM 33.4814 -86.7186 287° West 216 249 2,900 -1,469 Descending Atlanta Center
Fri 02:44:56 PM 33.5222 -86.7497 328° Northwest 136 157 1,600 3,399 Descending Atlanta Center
Fri 02:46:18 PM 33.5358 -86.8000 288° West 127 146 11,000 6,878 Climbing Atlanta Center

Login

Don't have an account? Register now (free) for customized features, flight alerts, and more!